Time;durP1;ratioP1;P1;durP2;ratioP2;P2;SDS_P1;SDS_P2;PMS_P1;PMS_P2;Temp;Humidity;BMP_temperature;BMP_pressure;BME280_temperature;BME280_humidity;BME280_pressure;Samples;Min_cycle;Max_cycle;Signal;HPM_P1;HPM_P2
2023/09/29 00:01:27;;;;;;;19.42;7.35;;;;;;;;;;5055006;28;20045;-66
2023/09/29 00:03:53;;;;;;;13.95;7.07;;;;;;;;;;5037327;28;20037;-66
2023/09/29 00:06:19;;;;;;;17.70;6.97;;;;;;;;;;5053033;28;21441;-66
2023/09/29 00:08:45;;;;;;;18.92;6.90;;;;;;;;;;5052736;28;20715;-66
2023/09/29 00:11:16;;;;;;;14.77;7.32;;;;;;;;;;5052922;28;20049;-66
2023/09/29 00:13:41;;;;;;;19.13;6.97;;;;;;;;;;5052269;28;20194;-66
2023/09/29 00:16:08;;;;;;;18.17;7.15;;;;;;;;;;5054314;28;20541;-66
2023/09/29 00:18:34;;;;;;;14.18;7.00;;;;;;;;;;5054764;28;20175;-66
2023/09/29 00:21:00;;;;;;;18.60;7.40;;;;;;;;;;5054203;28;20124;-66
2023/09/29 00:23:26;;;;;;;18.40;7.15;;;;;;;;;;5051700;28;20392;-66
2023/09/29 00:25:52;;;;;;;16.30;7.38;;;;;;;;;;5052988;28;20043;-66
2023/09/29 00:28:18;;;;;;;16.10;7.03;;;;;;;;;;5052795;28;20044;-67
2023/09/29 00:30:44;;;;;;;14.70;7.50;;;;;;;;;;5052448;28;20037;-67
2023/09/29 00:33:10;;;;;;;19.35;6.93;;;;;;;;;;5053318;28;20036;-67
2023/09/29 00:35:37;;;;;;;15.32;6.60;;;;;;;;;;5052415;28;20037;-67
2023/09/29 00:38:03;;;;;;;15.40;7.15;;;;;;;;;;5053837;28;20414;-67
2023/09/29 00:40:29;;;;;;;16.98;7.47;;;;;;;;;;5053253;28;20490;-67
2023/09/29 00:42:57;;;;;;;13.70;7.03;;;;;;;;;;5050174;28;20139;-67
2023/09/29 00:45:25;;;;;;;16.92;7.22;;;;;;;;;;5054001;28;20047;-67
2023/09/29 00:47:52;;;;;;;17.38;6.85;;;;;;;;;;5053097;28;20040;-67
2023/09/29 00:50:19;;;;;;;15.30;6.82;;;;;;;;;;5054739;28;20482;-67
2023/09/29 00:52:46;;;;;;;15.15;7.07;;;;;;;;;;5054140;28;20048;-67
2023/09/29 00:55:14;;;;;;;16.10;7.75;;;;;;;;;;5054622;28;20588;-67
2023/09/29 00:57:41;;;;;;;17.85;7.32;;;;;;;;;;5048900;28;20499;-67
2023/09/29 01:00:41;;;;;;;16.40;7.15;;;;;;;;;;5052336;28;20047;-67
2023/09/29 01:03:05;;;;;;;15.40;6.78;;;;;;;;;;5046435;28;20091;-67
2023/09/29 01:05:35;;;;;;;13.57;7.05;;;;;;;;;;5054220;28;20060;-67
2023/09/29 01:08:08;;;;;;;16.23;7.38;;;;;;;;;;5048903;28;20044;-67
2023/09/29 01:10:35;;;;;;;15.00;7.68;;;;;;;;;;5048252;28;20464;-67
2023/09/29 01:13:02;;;;;;;13.32;6.45;;;;;;;;;;5052927;28;20070;-66
2023/09/29 01:15:28;;;;;;;10.75;6.35;;;;;;;;;;5054312;28;20490;-66
2023/09/29 01:17:54;;;;;;;14.60;6.82;;;;;;;;;;5053278;28;20041;-66
2023/09/29 01:20:29;;;;;;;16.13;6.65;;;;;;;;;;5053556;28;20052;-66
2023/09/29 01:22:56;;;;;;;11.05;6.28;;;;;;;;;;5053069;28;20052;-67
2023/09/29 01:25:22;;;;;;;14.95;7.22;;;;;;;;;;5048881;28;20486;-67
2023/09/29 01:27:49;;;;;;;18.73;7.57;;;;;;;;;;5050687;28;20057;-67
2023/09/29 01:30:18;;;;;;;18.20;7.35;;;;;;;;;;5053130;28;20045;-67
2023/09/29 01:32:44;;;;;;;19.48;8.50;;;;;;;;;;5053417;28;20494;-67
2023/09/29 01:35:10;;;;;;;16.15;7.70;;;;;;;;;;5052721;28;20041;-67
2023/09/29 01:37:38;;;;;;;16.75;7.13;;;;;;;;;;5048137;28;20042;-67
2023/09/29 01:40:05;;;;;;;14.30;7.10;;;;;;;;;;5053316;28;20451;-67
2023/09/29 01:42:31;;;;;;;15.93;7.30;;;;;;;;;;5053662;28;20098;-67
2023/09/29 01:44:57;;;;;;;16.67;8.18;;;;;;;;;;5051847;28;20041;-67
2023/09/29 01:47:24;;;;;;;18.08;7.82;;;;;;;;;;5051827;28;20033;-67
2023/09/29 01:49:50;;;;;;;17.33;7.25;;;;;;;;;;5051487;28;20044;-67
2023/09/29 01:52:16;;;;;;;18.38;7.38;;;;;;;;;;5053287;28;20045;-67
2023/09/29 01:54:44;;;;;;;16.23;7.10;;;;;;;;;;5052468;28;20488;-67
2023/09/29 01:57:10;;;;;;;15.18;7.85;;;;;;;;;;5048931;28;20044;-67
2023/09/29 01:59:36;;;;;;;14.48;7.07;;;;;;;;;;5051294;28;20120;-67
2023/09/29 02:02:02;;;;;;;12.43;7.05;;;;;;;;;;5050398;28;20120;-67
2023/09/29 02:04:28;;;;;;;11.70;6.57;;;;;;;;;;5049942;28;20029;-67
2023/09/29 02:06:54;;;;;;;14.40;6.95;;;;;;;;;;5051171;28;20499;-67
2023/09/29 02:09:20;;;;;;;16.50;7.10;;;;;;;;;;5047070;28;20117;-67
2023/09/29 02:11:48;;;;;;;13.10;6.93;;;;;;;;;;5051302;28;20041;-67
2023/09/29 02:14:14;;;;;;;14.75;7.47;;;;;;;;;;5051744;28;20460;-67
2023/09/29 02:16:40;;;;;;;14.98;7.60;;;;;;;;;;5065107;22;20072;-71
2023/09/29 02:19:06;;;;;;;15.60;8.32;;;;;;;;;;5048376;28;20047;-71
2023/09/29 02:21:32;;;;;;;18.83;9.65;;;;;;;;;;5046864;28;20055;-71
2023/09/29 02:24:02;;;;;;;15.05;7.78;;;;;;;;;;5043531;28;20041;-71
2023/09/29 02:26:29;;;;;;;19.23;9.43;;;;;;;;;;5052066;28;20045;-71
2023/09/29 02:28:56;;;;;;;20.15;9.82;;;;;;;;;;5032981;28;20347;-71
2023/09/29 02:31:22;;;;;;;17.65;9.98;;;;;;;;;;5049674;28;20056;-71
2023/09/29 02:33:50;;;;;;;17.30;10.15;;;;;;;;;;5051660;28;20107;-71
2023/09/29 02:36:16;;;;;;;21.60;10.60;;;;;;;;;;5051952;28;20418;-71
2023/09/29 02:38:42;;;;;;;20.90;10.82;;;;;;;;;;5049717;28;20040;-71
2023/09/29 02:41:09;;;;;;;19.20;11.02;;;;;;;;;;5051372;28;20048;-71
2023/09/29 02:43:35;;;;;;;17.35;10.98;;;;;;;;;;5048804;28;20037;-71
2023/09/29 02:46:01;;;;;;;22.17;11.00;;;;;;;;;;5051216;28;20402;-71
2023/09/29 02:48:27;;;;;;;25.55;11.35;;;;;;;;;;5050564;28;20079;-71
2023/09/29 02:50:53;;;;;;;22.52;11.40;;;;;;;;;;5048559;28;20095;-71
2023/09/29 02:53:19;;;;;;;18.17;10.45;;;;;;;;;;5051423;28;20151;-71
2023/09/29 02:55:45;;;;;;;21.98;11.23;;;;;;;;;;5046031;28;20040;-71
2023/09/29 02:58:12;;;;;;;20.73;11.55;;;;;;;;;;5051688;28;20052;-71
2023/09/29 03:00:39;;;;;;;21.63;10.82;;;;;;;;;;5050316;28;20045;-71
2023/09/29 03:03:06;;;;;;;21.65;11.38;;;;;;;;;;5051546;28;20140;-71
2023/09/29 03:05:32;;;;;;;23.23;11.60;;;;;;;;;;5049178;28;20086;-71
2023/09/29 03:07:59;;;;;;;18.27;10.30;;;;;;;;;;5042203;28;20043;-71
2023/09/29 03:10:26;;;;;;;20.45;10.85;;;;;;;;;;5051291;28;20099;-71
2023/09/29 03:12:53;;;;;;;22.10;10.38;;;;;;;;;;5051720;28;20041;-71
2023/09/29 03:15:21;;;;;;;23.40;10.75;;;;;;;;;;5048257;28;20080;-71
2023/09/29 03:17:47;;;;;;;21.48;11.65;;;;;;;;;;5048887;28;20049;-71
2023/09/29 03:20:14;;;;;;;20.38;11.15;;;;;;;;;;5033440;28;20115;-71
2023/09/29 03:22:44;;;;;;;19.67;11.50;;;;;;;;;;5051410;28;20049;-71
2023/09/29 03:25:11;;;;;;;18.38;11.48;;;;;;;;;;5050452;28;20364;-71
2023/09/29 03:27:38;;;;;;;26.92;12.90;;;;;;;;;;5050254;28;20061;-71
2023/09/29 03:30:05;;;;;;;21.70;13.35;;;;;;;;;;5048226;28;20041;-71
2023/09/29 03:32:31;;;;;;;22.88;12.18;;;;;;;;;;5047608;28;20064;-71
2023/09/29 03:34:57;;;;;;;22.98;12.32;;;;;;;;;;5047760;28;20032;-71
2023/09/29 03:37:23;;;;;;;26.92;13.38;;;;;;;;;;5052245;28;20044;-70
2023/09/29 03:39:49;;;;;;;26.63;13.52;;;;;;;;;;5047664;28;20052;-70
2023/09/29 03:42:26;;;;;;;20.85;13.60;;;;;;;;;;5047167;28;20037;-70
2023/09/29 03:44:52;;;;;;;24.15;13.60;;;;;;;;;;5049485;28;20097;-70
2023/09/29 03:47:18;;;;;;;23.80;13.30;;;;;;;;;;5047462;28;20128;-70
2023/09/29 03:49:44;;;;;;;27.80;13.80;;;;;;;;;;5042839;28;20052;-70
2023/09/29 03:52:10;;;;;;;28.38;14.10;;;;;;;;;;5049166;28;20147;-70
2023/09/29 03:54:36;;;;;;;21.73;13.68;;;;;;;;;;5047125;28;20407;-70
2023/09/29 03:57:03;;;;;;;22.92;13.05;;;;;;;;;;5049199;28;20075;-70
2023/09/29 03:59:29;;;;;;;25.17;14.38;;;;;;;;;;5050414;28;20059;-70
2023/09/29 04:01:55;;;;;;;26.00;14.98;;;;;;;;;;5041070;28;20037;-70
2023/09/29 04:04:21;;;;;;;25.10;12.85;;;;;;;;;;5047769;28;20051;-70
2023/09/29 04:06:47;;;;;;;25.38;13.95;;;;;;;;;;5031257;28;20051;-70
2023/09/29 04:09:14;;;;;;;19.95;13.00;;;;;;;;;;5049140;28;20150;-70
2023/09/29 04:11:40;;;;;;;20.33;13.45;;;;;;;;;;5049266;28;20550;-70
2023/09/29 04:14:06;;;;;;;21.33;12.43;;;;;;;;;;5049040;28;20076;-70
2023/09/29 04:16:32;;;;;;;25.70;13.25;;;;;;;;;;5029328;28;20072;-70
2023/09/29 04:18:58;;;;;;;19.88;13.52;;;;;;;;;;5045880;28;20056;-70
2023/09/29 04:21:24;;;;;;;25.73;13.68;;;;;;;;;;5046783;28;20045;-70
2023/09/29 04:23:50;;;;;;;21.95;12.95;;;;;;;;;;5049773;28;20510;-70
2023/09/29 04:26:21;;;;;;;23.15;13.18;;;;;;;;;;5031941;28;20044;-71
2023/09/29 04:28:47;;;;;;;22.45;12.40;;;;;;;;;;5048885;28;20095;-70
2023/09/29 04:31:14;;;;;;;24.17;12.73;;;;;;;;;;5046106;28;20159;-71
2023/09/29 04:33:40;;;;;;;23.40;13.40;;;;;;;;;;5050084;28;20033;-71
2023/09/29 04:36:06;;;;;;;24.30;12.57;;;;;;;;;;5049180;28;20045;-71
2023/09/29 04:38:33;;;;;;;24.40;12.50;;;;;;;;;;5050034;28;20037;-71
2023/09/29 04:40:59;;;;;;;23.02;11.73;;;;;;;;;;5047661;28;20037;-71
2023/09/29 04:43:25;;;;;;;21.23;11.38;;;;;;;;;;5050981;28;20458;-71
2023/09/29 04:45:51;;;;;;;19.20;11.07;;;;;;;;;;5050613;28;20487;-71
2023/09/29 04:48:17;;;;;;;18.48;10.52;;;;;;;;;;5052802;28;20048;-71
2023/09/29 04:50:43;;;;;;;19.63;10.00;;;;;;;;;;5050942;28;20102;-71
2023/09/29 04:53:09;;;;;;;19.90;10.90;;;;;;;;;;5053663;28;20048;-71
2023/09/29 04:55:35;;;;;;;23.38;10.73;;;;;;;;;;5035313;28;20395;-71
2023/09/29 04:58:01;;;;;;;21.38;10.98;;;;;;;;;;5051947;28;20124;-71
2023/09/29 05:00:27;;;;;;;17.92;9.80;;;;;;;;;;5054112;28;20463;-71
2023/09/29 05:02:53;;;;;;;18.00;10.52;;;;;;;;;;5052676;28;20040;-71
2023/09/29 05:05:19;;;;;;;19.67;9.57;;;;;;;;;;5033543;28;20502;-71
2023/09/29 05:07:45;;;;;;;16.80;8.20;;;;;;;;;;5051640;28;20036;-71
2023/09/29 05:10:15;;;;;;;14.60;7.75;;;;;;;;;;5053575;28;20465;-71
2023/09/29 05:12:43;;;;;;;17.65;8.40;;;;;;;;;;5053832;28;20189;-71
2023/09/29 05:15:09;;;;;;;13.77;7.93;;;;;;;;;;5053979;28;20041;-71
2023/09/29 05:17:35;;;;;;;14.80;7.72;;;;;;;;;;5052127;28;20076;-71
2023/09/29 05:20:02;;;;;;;17.77;8.52;;;;;;;;;;5053120;28;20041;-71
2023/09/29 05:22:28;;;;;;;14.45;7.03;;;;;;;;;;5053258;28;20067;-71
2023/09/29 05:24:54;;;;;;;14.40;6.60;;;;;;;;;;5033495;28;20045;-71
2023/09/29 05:27:20;;;;;;;14.82;6.72;;;;;;;;;;5051516;28;20033;-71
2023/09/29 05:29:46;;;;;;;14.13;6.70;;;;;;;;;;5052668;28;20251;-71
2023/09/29 05:32:12;;;;;;;14.55;6.20;;;;;;;;;;5050845;28;20094;-71
2023/09/29 05:34:39;;;;;;;18.10;7.10;;;;;;;;;;5034438;28;20079;-71
2023/09/29 05:37:05;;;;;;;14.52;6.43;;;;;;;;;;5043534;28;20056;-71
2023/09/29 05:39:32;;;;;;;10.93;6.50;;;;;;;;;;5051048;28;20044;-71
2023/09/29 05:41:58;;;;;;;14.30;6.38;;;;;;;;;;5049460;28;20086;-71
2023/09/29 05:44:24;;;;;;;14.65;6.32;;;;;;;;;;5052167;28;20434;-71
2023/09/29 05:46:50;;;;;;;12.52;6.88;;;;;;;;;;5051436;28;20037;-71
2023/09/29 05:49:16;;;;;;;11.57;6.90;;;;;;;;;;5034730;28;20098;-71
2023/09/29 05:51:42;;;;;;;13.52;6.72;;;;;;;;;;5050664;28;20037;-71
2023/09/29 05:54:08;;;;;;;12.23;6.80;;;;;;;;;;5051098;28;20403;-71
2023/09/29 05:56:34;;;;;;;12.85;6.68;;;;;;;;;;5051038;28;20044;-71
2023/09/29 05:59:00;;;;;;;11.63;6.97;;;;;;;;;;5050573;28;20050;-71
2023/09/29 06:01:26;;;;;;;10.02;6.45;;;;;;;;;;5051920;28;20130;-71
2023/09/29 06:03:52;;;;;;;9.35;7.18;;;;;;;;;;5051358;28;20060;-71
2023/09/29 06:06:18;;;;;;;16.23;7.00;;;;;;;;;;5052566;28;20127;-71
2023/09/29 06:08:45;;;;;;;12.50;7.03;;;;;;;;;;5052421;28;20033;-71
2023/09/29 06:11:11;;;;;;;14.02;7.38;;;;;;;;;;5052552;28;20447;-71
2023/09/29 06:13:42;;;;;;;12.30;7.20;;;;;;;;;;5052687;28;20040;-71
2023/09/29 06:16:08;;;;;;;11.90;6.72;;;;;;;;;;5050637;28;20669;-71
2023/09/29 06:18:34;;;;;;;14.77;6.80;;;;;;;;;;5051992;28;20045;-71
2023/09/29 06:21:00;;;;;;;11.98;6.72;;;;;;;;;;5052962;28;20433;-71
2023/09/29 06:23:26;;;;;;;12.70;6.63;;;;;;;;;;5051848;28;20041;-71
2023/09/29 06:26:01;;;;;;;10.80;6.68;;;;;;;;;;5051568;28;20086;-71
2023/09/29 06:28:28;;;;;;;12.10;6.40;;;;;;;;;;5051848;28;20396;-71
2023/09/29 06:30:55;;;;;;;10.75;6.38;;;;;;;;;;5052426;28;20045;-71
2023/09/29 06:33:21;;;;;;;9.50;5.95;;;;;;;;;;5051650;28;20049;-71
2023/09/29 06:35:47;;;;;;;12.07;6.07;;;;;;;;;;5051500;28;20120;-71
2023/09/29 06:38:14;;;;;;;10.68;5.65;;;;;;;;;;5051705;28;20087;-71
2023/09/29 06:40:40;;;;;;;9.15;5.55;;;;;;;;;;5048601;28;20068;-71
2023/09/29 06:43:07;;;;;;;7.25;5.60;;;;;;;;;;5051663;28;20479;-71
2023/09/29 06:45:34;;;;;;;9.93;5.97;;;;;;;;;;5051676;28;20037;-71
2023/09/29 06:47:59;;;;;;;9.15;5.60;;;;;;;;;;5047651;28;20037;-71
2023/09/29 06:50:26;;;;;;;9.63;5.28;;;;;;;;;;5051266;28;20621;-71
2023/09/29 06:52:52;;;;;;;9.15;5.00;;;;;;;;;;5051898;28;20037;-71
2023/09/29 06:55:18;;;;;;;8.70;5.20;;;;;;;;;;5051600;28;20037;-71
2023/09/29 06:57:44;;;;;;;13.70;5.28;;;;;;;;;;5044549;28;20510;-71
2023/09/29 07:00:10;;;;;;;15.63;4.70;;;;;;;;;;5045090;28;20033;-71
2023/09/29 07:02:36;;;;;;;7.47;4.30;;;;;;;;;;5045010;28;20037;-70
2023/09/29 07:05:02;;;;;;;7.35;4.30;;;;;;;;;;5027689;28;20098;-70
2023/09/29 07:07:28;;;;;;;8.93;4.55;;;;;;;;;;5037065;28;20080;-70
2023/09/29 07:09:54;;;;;;;12.43;4.22;;;;;;;;;;5042857;28;20045;-70
2023/09/29 07:12:21;;;;;;;10.00;4.10;;;;;;;;;;5044971;28;20127;-71
2023/09/29 07:14:47;;;;;;;7.32;4.00;;;;;;;;;;5039710;28;20087;-71
2023/09/29 07:17:13;;;;;;;7.15;4.25;;;;;;;;;;5041824;28;20495;-71
2023/09/29 07:19:39;;;;;;;9.43;4.20;;;;;;;;;;5039135;28;20045;-71
2023/09/29 07:22:05;;;;;;;7.65;4.18;;;;;;;;;;5029697;28;20367;-71
2023/09/29 07:24:31;;;;;;;5.97;4.20;;;;;;;;;;5040749;28;20063;-71
2023/09/29 07:26:57;;;;;;;9.18;3.83;;;;;;;;;;5041724;28;20037;-71
2023/09/29 07:29:23;;;;;;;9.45;3.80;;;;;;;;;;5040664;28;20095;-71
2023/09/29 07:31:49;;;;;;;6.75;3.78;;;;;;;;;;5039421;28;20045;-71
2023/09/29 07:34:15;;;;;;;6.60;3.83;;;;;;;;;;5040130;28;20034;-71
2023/09/29 07:36:45;;;;;;;6.35;3.85;;;;;;;;;;5043039;28;20044;-71
2023/09/29 07:39:15;;;;;;;12.65;4.18;;;;;;;;;;5039778;28;20133;-71
2023/09/29 07:41:41;;;;;;;6.63;3.33;;;;;;;;;;5044294;28;20044;-71
2023/09/29 07:44:08;;;;;;;6.68;3.78;;;;;;;;;;5023832;28;20040;-71
2023/09/29 07:46:35;;;;;;;6.20;3.60;;;;;;;;;;5042775;28;20045;-71
2023/09/29 07:49:01;;;;;;;6.63;3.75;;;;;;;;;;5041234;28;20041;-71
2023/09/29 07:51:27;;;;;;;4.85;3.45;;;;;;;;;;5042376;28;20040;-71
2023/09/29 07:53:53;;;;;;;5.72;3.67;;;;;;;;;;5046082;28;20032;-71
2023/09/29 07:56:19;;;;;;;8.05;3.70;;;;;;;;;;5043839;28;20041;-71
2023/09/29 07:58:45;;;;;;;4.97;3.55;;;;;;;;;;5041265;28;20036;-71
2023/09/29 08:01:11;;;;;;;5.97;3.67;;;;;;;;;;5046601;28;20064;-71
2023/09/29 08:03:37;;;;;;;5.75;3.85;;;;;;;;;;5043332;28;20478;-71
2023/09/29 08:06:04;;;;;;;6.55;3.47;;;;;;;;;;5024635;28;20041;-71
2023/09/29 08:08:30;;;;;;;5.57;3.60;;;;;;;;;;5036742;28;20041;-71
2023/09/29 08:10:56;;;;;;;6.43;3.95;;;;;;;;;;5043203;28;20067;-71
2023/09/29 08:13:23;;;;;;;6.78;4.00;;;;;;;;;;5024644;28;20051;-71
2023/09/29 08:15:49;;;;;;;6.22;3.85;;;;;;;;;;5058709;22;20517;-63
2023/09/29 08:18:17;;;;;;;8.80;3.50;;;;;;;;;;5053105;22;20405;-62
2023/09/29 08:20:43;;;;;;;6.65;4.07;;;;;;;;;;5040132;28;20467;-62
2023/09/29 08:23:09;;;;;;;6.07;3.72;;;;;;;;;;5042560;28;20045;-61
2023/09/29 08:25:35;;;;;;;7.07;3.80;;;;;;;;;;5041184;28;20041;-63
2023/09/29 08:28:02;;;;;;;7.57;3.92;;;;;;;;;;5038100;28;20029;-63
2023/09/29 08:30:29;;;;;;;6.38;3.78;;;;;;;;;;5042514;28;20048;-63
2023/09/29 08:32:55;;;;;;;8.73;3.88;;;;;;;;;;5040077;28;20332;-63
2023/09/29 08:35:21;;;;;;;6.50;3.92;;;;;;;;;;5037020;28;20440;-64
2023/09/29 08:37:49;;;;;;;5.93;3.53;;;;;;;;;;5042715;28;20493;-64
2023/09/29 08:40:16;;;;;;;6.65;3.92;;;;;;;;;;5042061;28;20049;-63
2023/09/29 08:42:45;;;;;;;7.78;4.28;;;;;;;;;;5039838;28;20047;-63
2023/09/29 08:45:11;;;;;;;6.75;3.70;;;;;;;;;;5044002;28;20124;-63
2023/09/29 08:47:38;;;;;;;5.45;3.60;;;;;;;;;;5040060;28;20069;-63
2023/09/29 08:50:05;;;;;;;8.85;4.13;;;;;;;;;;5043326;28;20423;-64
2023/09/29 08:52:32;;;;;;;7.38;3.58;;;;;;;;;;5051495;28;20072;-63
2023/09/29 08:54:59;;;;;;;9.95;3.80;;;;;;;;;;5042667;28;20049;-64
2023/09/29 08:57:25;;;;;;;7.60;3.80;;;;;;;;;;5044793;28;20341;-64
2023/09/29 08:59:53;;;;;;;6.00;3.70;;;;;;;;;;5052001;28;20094;-64
2023/09/29 09:02:19;;;;;;;7.45;3.70;;;;;;;;;;5050779;28;20036;-63
2023/09/29 09:04:45;;;;;;;6.47;3.70;;;;;;;;;;5049907;28;20044;-65
2023/09/29 09:07:12;;;;;;;4.18;3.20;;;;;;;;;;5050797;28;20039;-64
2023/09/29 09:09:38;;;;;;;6.40;3.65;;;;;;;;;;5051489;28;20036;-63
2023/09/29 09:12:04;;;;;;;5.43;3.60;;;;;;;;;;5050770;28;20037;-64
2023/09/29 09:14:44;;;;;;;5.07;3.47;;;;;;;;;;5051808;28;20056;-64
2023/09/29 09:17:10;;;;;;;5.60;3.20;;;;;;;;;;5046259;28;20052;-65
2023/09/29 09:19:45;;;;;;;9.23;3.25;;;;;;;;;;5050879;28;20408;-65
2023/09/29 09:22:14;;;;;;;7.25;3.63;;;;;;;;;;5045509;28;20043;-65
2023/09/29 09:24:41;;;;;;;5.80;3.53;;;;;;;;;;5047167;28;20078;-64
2023/09/29 09:27:07;;;;;;;7.55;3.75;;;;;;;;;;5049761;28;20037;-64
2023/09/29 09:29:43;;;;;;;6.43;3.78;;;;;;;;;;5050262;28;20068;-64
2023/09/29 09:32:10;;;;;;;7.70;4.00;;;;;;;;;;5030478;28;20041;-64
2023/09/29 09:34:37;;;;;;;5.72;3.90;;;;;;;;;;5036673;28;20118;-64
2023/09/29 09:37:05;;;;;;;5.00;3.60;;;;;;;;;;5036868;28;20120;-64
2023/09/29 09:39:33;;;;;;;6.60;2.92;;;;;;;;;;5041697;28;20524;-64
2023/09/29 09:41:59;;;;;;;6.03;3.33;;;;;;;;;;5047046;28;20089;-65
2023/09/29 09:44:28;;;;;;;6.72;3.50;;;;;;;;;;5038356;28;20056;-64
2023/09/29 09:47:00;;;;;;;9.52;3.40;;;;;;;;;;5030529;28;20064;-63
2023/09/29 09:49:29;;;;;;;4.45;3.38;;;;;;;;;;5044791;28;20049;-64
2023/09/29 09:51:59;;;;;;;6.55;3.08;;;;;;;;;;5034150;28;20049;-64
2023/09/29 09:54:29;;;;;;;6.03;3.28;;;;;;;;;;5040801;28;20037;-64
2023/09/29 09:56:55;;;;;;;;;;;;;;;;;;5047172;28;20036;-64
2023/09/29 09:59:22;;;;;;;5.60;3.05;;;;;;;;;;5043485;28;19921;-64
2023/09/29 10:01:49;;;;;;;7.38;3.40;;;;;;;;;;5045299;28;20052;-64
2023/09/29 10:04:15;;;;;;;6.65;2.83;;;;;;;;;;5046163;28;20536;-64
2023/09/29 10:06:45;;;;;;;8.20;3.25;;;;;;;;;;5047531;28;20052;-64
2023/09/29 10:09:11;;;;;;;10.32;3.50;;;;;;;;;;5044724;28;20396;-63
2023/09/29 10:11:42;;;;;;;6.75;3.40;;;;;;;;;;5033885;28;20044;-63
2023/09/29 10:14:08;;;;;;;5.38;2.88;;;;;;;;;;5045531;28;20041;-64
2023/09/29 10:16:35;;;;;;;4.30;3.22;;;;;;;;;;5052508;28;20175;-64
2023/09/29 10:19:05;;;;;;;6.10;2.90;;;;;;;;;;5048995;28;20051;-63
2023/09/29 10:21:41;;;;;;;6.63;2.70;;;;;;;;;;5051196;28;20037;-63
2023/09/29 10:24:11;;;;;;;6.20;2.83;;;;;;;;;;5048666;28;20033;-64
2023/09/29 10:26:44;;;;;;;6.05;3.20;;;;;;;;;;5049038;28;20400;-64
2023/09/29 10:29:18;;;;;;;5.15;3.13;;;;;;;;;;5043412;28;20033;-63
2023/09/29 10:31:44;;;;;;;5.18;3.00;;;;;;;;;;5050437;28;20083;-64
2023/09/29 10:34:17;;;;;;;8.45;3.30;;;;;;;;;;5047631;28;20163;-64
2023/09/29 10:36:44;;;;;;;6.88;2.97;;;;;;;;;;5048193;28;20041;-64
2023/09/29 10:39:10;;;;;;;6.95;3.50;;;;;;;;;;5044336;28;20091;-64
2023/09/29 10:41:37;;;;;;;5.90;3.00;;;;;;;;;;5046446;28;20492;-64
2023/09/29 10:44:04;;;;;;;5.88;2.92;;;;;;;;;;5049664;28;20584;-64
2023/09/29 10:46:31;;;;;;;6.45;3.47;;;;;;;;;;5042749;28;20060;-64
2023/09/29 10:48:57;;;;;;;4.78;3.17;;;;;;;;;;5047657;28;20057;-64
2023/09/29 10:51:27;;;;;;;5.15;2.97;;;;;;;;;;5050603;28;20091;-64
2023/09/29 10:53:54;;;;;;;6.18;3.75;;;;;;;;;;5049827;28;20401;-64
2023/09/29 10:56:20;;;;;;;6.63;3.40;;;;;;;;;;5049928;28;20095;-64
2023/09/29 10:58:48;;;;;;;6.40;3.60;;;;;;;;;;5045474;28;20442;-64
2023/09/29 11:01:18;;;;;;;7.10;3.30;;;;;;;;;;5046877;28;20045;-64
2023/09/29 11:03:44;;;;;;;;;;;;;;;;;;5049589;28;20037;-64
2023/09/29 11:06:16;;;;;;;5.35;3.50;;;;;;;;;;5049665;28;20360;-64
2023/09/29 11:08:45;;;;;;;8.02;4.20;;;;;;;;;;5049528;28;20120;-63
2023/09/29 11:11:11;;;;;;;5.43;3.72;;;;;;;;;;5047065;28;20036;-63
2023/09/29 11:13:37;;;;;;;7.38;3.55;;;;;;;;;;5049615;28;20052;-64
2023/09/29 11:16:14;;;;;;;6.70;3.60;;;;;;;;;;5048477;28;20393;-64
2023/09/29 11:18:41;;;;;;;5.78;3.42;;;;;;;;;;5048457;28;20110;-64
2023/09/29 11:21:10;;;;;;;5.57;3.72;;;;;;;;;;5042890;28;20479;-65
2023/09/29 11:23:49;;;;;;;7.70;3.83;;;;;;;;;;5051295;28;20044;-64
2023/09/29 11:26:16;;;;;;;7.28;3.95;;;;;;;;;;5046360;28;20547;-64
2023/09/29 11:28:43;;;;;;;7.32;3.53;;;;;;;;;;5047640;28;20488;-64
2023/09/29 11:31:09;;;;;;;6.43;3.50;;;;;;;;;;5049811;28;20497;-64
2023/09/29 11:33:36;;;;;;;7.15;3.75;;;;;;;;;;5050379;28;20036;-64
2023/09/29 11:36:11;;;;;;;7.45;3.33;;;;;;;;;;5043712;28;20041;-64
2023/09/29 11:38:36;;;;;;;7.43;3.80;;;;;;;;;;5048155;28;20055;-64
2023/09/29 11:41:04;;;;;;;6.03;3.97;;;;;;;;;;5048335;28;20045;-64
2023/09/29 11:43:30;;;;;;;5.78;3.10;;;;;;;;;;5046088;28;20064;-64
2023/09/29 11:45:56;;;;;;;6.50;3.53;;;;;;;;;;5048901;28;20068;-64
2023/09/29 11:48:22;;;;;;;7.10;3.67;;;;;;;;;;5047816;28;20061;-63
2023/09/29 11:50:49;;;;;;;7.25;3.80;;;;;;;;;;5048192;28;20045;-64
2023/09/29 11:53:15;;;;;;;6.13;3.22;;;;;;;;;;5050843;28;20037;-64
2023/09/29 11:55:41;;;;;;;6.60;3.42;;;;;;;;;;5050020;28;20040;-64
2023/09/29 11:58:08;;;;;;;6.50;3.63;;;;;;;;;;5044577;28;20041;-64
2023/09/29 12:00:35;;;;;;;7.13;3.40;;;;;;;;;;5046582;28;20558;-64
2023/09/29 12:03:06;;;;;;;5.43;3.45;;;;;;;;;;5042326;28;20404;-65
2023/09/29 12:05:32;;;;;;;5.95;3.65;;;;;;;;;;5049515;28;20029;-64
2023/09/29 12:07:58;;;;;;;8.50;4.15;;;;;;;;;;5050008;28;20044;-64
2023/09/29 12:10:24;;;;;;;9.57;3.80;;;;;;;;;;5052579;28;20033;-64
2023/09/29 12:12:51;;;;;;;8.80;4.15;;;;;;;;;;5048689;28;20492;-64
2023/09/29 12:15:18;;;;;;;7.82;3.75;;;;;;;;;;5052938;28;20040;-64
2023/09/29 12:17:44;;;;;;;6.72;3.63;;;;;;;;;;5033844;28;20045;-64
2023/09/29 12:20:13;;;;;;;8.40;3.78;;;;;;;;;;5041479;28;20108;-64
2023/09/29 12:22:43;;;;;;;7.03;3.60;;;;;;;;;;5040598;28;20041;-64
2023/09/29 12:25:10;;;;;;;10.10;4.22;;;;;;;;;;5042652;28;20405;-64
2023/09/29 12:27:37;;;;;;;6.55;3.70;;;;;;;;;;5036185;28;20050;-64
2023/09/29 12:30:07;;;;;;;7.63;4.05;;;;;;;;;;5039475;28;20055;-64
2023/09/29 12:32:33;;;;;;;7.60;3.83;;;;;;;;;;5040298;28;20049;-63
2023/09/29 12:34:59;;;;;;;5.32;3.67;;;;;;;;;;5040993;28;20092;-64
2023/09/29 12:37:25;;;;;;;8.18;3.97;;;;;;;;;;5040407;28;20476;-65
2023/09/29 12:39:53;;;;;;;7.18;4.07;;;;;;;;;;5038358;28;20054;-63
2023/09/29 12:42:19;;;;;;;7.35;4.20;;;;;;;;;;5037770;28;20096;-64
2023/09/29 12:44:47;;;;;;;8.05;4.38;;;;;;;;;;5038884;28;20041;-64
2023/09/29 12:47:13;;;;;;;6.25;4.05;;;;;;;;;;5035886;28;20084;-64
2023/09/29 12:49:39;;;;;;;6.05;3.92;;;;;;;;;;5030565;28;20460;-65
2023/09/29 12:52:05;;;;;;;8.82;5.00;;;;;;;;;;5046054;28;20037;-65
2023/09/29 12:54:31;;;;;;;9.32;5.00;;;;;;;;;;5050442;28;20040;-65
2023/09/29 12:56:57;;;;;;;6.47;4.15;;;;;;;;;;5043476;28;20729;-65
2023/09/29 12:59:26;;;;;;;7.07;4.00;;;;;;;;;;5050117;28;20040;-64
2023/09/29 13:01:52;;;;;;;6.38;4.03;;;;;;;;;;5047412;28;20497;-64
2023/09/29 13:04:18;;;;;;;7.05;3.80;;;;;;;;;;5044077;28;20119;-64
2023/09/29 13:06:44;;;;;;;5.45;3.92;;;;;;;;;;5049895;28;20037;-63
2023/09/29 13:09:11;;;;;;;4.57;3.13;;;;;;;;;;5052345;28;20076;-64
2023/09/29 13:11:37;;;;;;;4.65;3.20;;;;;;;;;;5046252;28;20055;-65
2023/09/29 13:14:03;;;;;;;5.25;3.38;;;;;;;;;;5044239;28;20102;-65
2023/09/29 13:16:29;;;;;;;6.57;3.40;;;;;;;;;;5052816;28;20079;-65
2023/09/29 13:18:55;;;;;;;9.65;3.80;;;;;;;;;;5059412;28;20060;-66
2023/09/29 13:21:21;;;;;;;5.93;3.85;;;;;;;;;;5069746;28;20036;-66
2023/09/29 13:23:48;;;;;;;4.28;2.00;;;;;;;;;;5061498;28;20044;-67
2023/09/29 13:26:14;;;;;;;1.88;1.20;;;;;;;;;;5054436;28;20042;-67
2023/09/29 13:28:40;;;;;;;2.95;0.90;;;;;;;;;;5054237;28;20067;-66
2023/09/29 13:31:06;;;;;;;1.92;0.60;;;;;;;;;;5061434;28;20056;-65
2023/09/29 13:33:33;;;;;;;1.70;0.50;;;;;;;;;;5046567;28;20037;-66
2023/09/29 13:35:59;;;;;;;0.82;0.43;;;;;;;;;;5055407;28;20481;-67
2023/09/29 13:38:25;;;;;;;0.52;0.40;;;;;;;;;;5056071;28;20048;-67
2023/09/29 13:40:52;;;;;;;1.38;0.40;;;;;;;;;;5054955;28;20086;-66
2023/09/29 13:43:18;;;;;;;0.60;0.30;;;;;;;;;;5049084;28;20033;-67
2023/09/29 13:45:44;;;;;;;0.60;0.47;;;;;;;;;;5051830;28;20041;-66
2023/09/29 13:48:10;;;;;;;0.80;0.40;;;;;;;;;;5050117;28;20115;-66
2023/09/29 13:50:37;;;;;;;1.73;0.70;;;;;;;;;;5051727;28;20047;-66
2023/09/29 13:53:03;;;;;;;0.82;0.40;;;;;;;;;;5039161;28;20519;-66
2023/09/29 13:55:29;;;;;;;0.73;0.40;;;;;;;;;;5051459;28;20722;-66
2023/09/29 13:57:55;;;;;;;1.45;0.30;;;;;;;;;;5050243;28;20122;-66
2023/09/29 14:00:23;;;;;;;1.55;0.60;;;;;;;;;;5049870;28;20113;-66
2023/09/29 14:02:49;;;;;;;1.50;0.60;;;;;;;;;;5047890;28;20037;-65
2023/09/29 14:05:16;;;;;;;1.83;0.60;;;;;;;;;;5032712;28;20496;-65
2023/09/29 14:07:42;;;;;;;1.50;0.52;;;;;;;;;;5034238;28;20041;-65
2023/09/29 14:10:08;;;;;;;1.00;0.50;;;;;;;;;;5045424;28;20512;-65
2023/09/29 14:12:37;;;;;;;1.70;0.60;;;;;;;;;;5037265;28;20087;-65
2023/09/29 14:15:07;;;;;;;2.17;1.00;;;;;;;;;;5039946;28;20065;-65
2023/09/29 14:17:34;;;;;;;1.85;0.60;;;;;;;;;;5070177;22;20072;-68
2023/09/29 14:20:00;;;;;;;1.33;0.55;;;;;;;;;;5062451;28;20040;-68
2023/09/29 14:22:26;;;;;;;1.67;0.50;;;;;;;;;;5060438;28;20036;-68
2023/09/29 14:24:52;;;;;;;1.35;0.60;;;;;;;;;;5066551;28;20036;-67
2023/09/29 14:27:18;;;;;;;1.25;0.50;;;;;;;;;;5062071;28;20063;-67
2023/09/29 14:29:44;;;;;;;1.00;0.45;;;;;;;;;;5062400;28;20072;-67
2023/09/29 14:32:11;;;;;;;2.28;0.60;;;;;;;;;;5062517;28;20043;-67
2023/09/29 14:34:37;;;;;;;4.00;0.80;;;;;;;;;;5065272;28;20040;-67